ADDS METAR Data INFO
IDs: Format: Raw Decoded Include TAF

Data at: 0144 UTC 17 Oct 2017

KFNT 170053Z 19005KT 10SM FEW048 09/03 A3024 RMK AO2 SLP246 T00890033
KFNT 162353Z AUTO 19005KT 10SM CLR 09/03 A3025 RMK AO2 SLP248 T00940033 10139 20094 53003
KFNT 162253Z AUTO 20003KT 10SM BKN075 10/03 A3024 RMK AO2 SLP246 T01000028
KFNT 162153Z AUTO 24006KT 10SM SCT075 12/02 A3024 RMK AO2 SLP243 T01220022 $
KFNT 162053Z AUTO 25009KT 10SM FEW060 BKN075 13/02 A3024 RMK AO2 SLP244 T01330017 56013 $
KFNT 161953Z 28005KT 10SM SCT060 13/01 A3025 RMK AO2 SLP247 T01330011 $
KFNT 161853Z 22005KT 10SM FEW048 13/01 A3026 RMK AO2 SLP250 T01280011 $
KFNT 161753Z 10SM CLR 12/M01 A3028 RMK AO2 SLP257 T01221006 10122 20050 58009 $
KFNT 161653Z 21003KT 10SM CLR 11/01 A3030 RMK AO2 SLP264 T01110011 $
KFNT 161553Z 36003KT 10SM CLR 11/01 A3031 RMK AO2 SLP267 T01060011 $
KFNT 161453Z VRB04KT 10SM CLR 09/01 A3031 RMK AO2 SLP267 T00890006 51011 $
KFNT 161353Z 29003KT 10SM FEW090 08/03 A3030 RMK AO2 SLP265 T00830028 $
KFNT 161253Z 34006KT 10SM BKN095 06/02 A3029 RMK AO2 SLP263 T00560022 $
KFNT 161153Z 32004KT 10SM SCT065 OVC090 05/02 A3027 RMK AO2 SLP256 70019 T00500022 10061 20044 $
KFNT 161118Z 33004KT 10SM BKN067 05/02 A3026 RMK AO2 T00500022 $
KFNT 160953Z 30004KT 10SM BKN070 OVC095 05/03 A3024 RMK AO2 SLP246 T00500033 $
KFNT 160853Z AUTO 32006KT 10SM SCT110 05/03 A3022 RMK AO2 SLP238 T00500028 53011 $
KFNT 160753Z AUTO 32006KT 10SM FEW085 FEW110 05/03 A3020 RMK AO2 SLP232 T00500033 $
KFNT 160653Z AUTO 32005KT 10SM OVC100 06/04 A3020 RMK AO2 SLP230 T00610039 $
KFNT 160553Z AUTO 31005KT 10SM CLR 05/04 A3019 RMK AO2 SLP226 T00500039 10100 20050 53013 $
KFNT 160453Z AUTO 29005KT 10SM BKN030 07/04 A3017 RMK AO2 SLP220 T00670044 402060067 $
KFNT 160430Z AUTO 28005KT 10SM FEW023 OVC030 07/05 A3017 RMK AO2 T00720050 $
KFNT 160421Z AUTO 27004KT 10SM BKN027 OVC033 07/05 A3017 RMK AO2 T00720050 $
KFNT 160353Z AUTO 30003KT 10SM FEW026 BKN034 07/04 A3017 RMK AO2 SLP216 T00720039 $
KFNT 160253Z 31006KT 10SM BKN035 08/04 A3015 RMK AO2 SLP210 T00780039 51030 $
KFNT 160153Z 33011KT 10SM FEW038 08/04 A3012 RMK AO2 SLP201 T00830039 $
KFNT 160053Z 33011KT 10SM SCT042 09/04 A3009 RMK AO2 SLP190 T00940044 $
KFNT 152353Z AUTO 35008KT 10SM BKN034 BKN042 10/04 A3006 RMK AO2 SLP180 60001 T01000044 10156 20100 51055 $
KFNT 152253Z 32011G21KT 10SM OVC042 11/04 A3001 RMK AO2 PK WND 32030/2154 SLP164 T01060039 $
KFNT 152153Z 31014G25KT 10SM BKN040 12/05 A2995 RMK AO2 PK WND 32031/2101 SLP143 T01170050 $
KFNT 152100Z 32022G30KT 10SM FEW026 SCT032 OVC042 13/06 A2990 RMK AO2 PK WND 32030/2059 T01280061 $
KFNT 152053Z 31020G26KT 10SM BKN022 OVC030 12/07 A2990 RMK AO2 PK WND 30033/2011 RAE1958 SLP124 P0000 60001 T01220067 53049 $
KFNT 152015Z 30019G33KT 10SM BKN020 BKN027 OVC035 13/09 A2985 RMK AO2 PK WND 30033/2011 RAE1958 PRESRR P0000 T01280089 $
KFNT 151953Z 29021G29KT 9SM -RA FEW023 BKN036 OVC060 13/10 A2983 RMK AO2 PK WND 29029/1949 RAB21E33B45 SLP101 P0001 T01330100 $
KFNT 151938Z 28018G26KT 10SM FEW019 BKN040 OVC065 14/11 A2981 RMK AO2 PK WND 29026/1922 RAB21E33 P0001 T01440111 $
KFNT 151853Z 27021G31KT 10SM BKN027 OVC033 15/10 A2978 RMK AO2 PK WND 27031/1853 SLP085 T01500100 $
KFNT 151842Z 26018G27KT 10SM BKN027 OVC033 14/10 A2978 RMK AO2 PK WND 27031/1812 T01440100 $
KFNT 151753Z 26019G26KT 10SM FEW015 BKN038 OVC055 15/11 A2975 RMK AO2 PK WND 27030/1732 RAE44 SLP073 P0002 60018 T01500111 10206 20139 50024 $
KFNT 151751Z 26021G26KT 10SM FEW012 BKN034 OVC042 15/12 A2975 RMK AO2 PK WND 27030/1732 RAE44 P0002 $
KFNT 151736Z 28016G30KT 3SM -RA BR FEW009 BKN015 OVC025 14/12 A2975 RMK AO2 PK WND 27030/1732 P0002 T01390122 $
KFNT 151653Z 26014G21KT 10SM -RA OVC012 16/14 A2972 RMK AO2 PK WND 26028/1557 RAB1557 PRESRR SLP063 P0001 T01560139 $
KFNT 151634Z 25014G22KT 10SM -RA BKN013 BKN018 OVC060 16/15 A2970 RMK AO2 PK WND 26028/1557 RAB1557 P0001 T01610150 $
KFNT 151610Z 26014G26KT 10SM -RA FEW014 SCT021 OVC050 16/14 A2969 RMK AO2 PK WND 26028/1557 RAB1557 P0001 T01610139 $
KFNT 151553Z 28021G29KT 10SM FEW012 BKN025 OVC049 17/15 A2967 RMK AO2 PK WND 24041/1526 RAE38 PRESRR SLP047 P0015 T01720150 $
KFNT 151536Z 27022G35KT 5SM -RA BR FEW009 BKN021 OVC043 18/16 A2966 RMK AO2 PK WND 24041/1526 PRESRR P0015 T01780156 $
KFNT 151525Z 25021G32KT 1SM R09/4500VP6000FT +RA BR FEW009 BKN017 OVC022 19/18 A2964 RMK AO2 PK WND 25032/1525 PRESRR P0008 T01890178 $
KFNT 151453Z 23014G25KT 10SM -RA BKN023 OVC027 21/17 A2962 RMK AO2 PK WND 23028/1418 RAE04B51 SLP029 P0000 60000 T02060172 56010 $
KFNT 151353Z 23016G24KT 10SM -RA BKN021 BKN026 BKN110 20/17 A2964 RMK AO2 RAE1259B41 SLP033 P0000 T02000172 $